createdAt,value
2022-12-18T00:01:41.839Z,50.28
2022-12-18T00:04:16.236Z,47.60
2022-12-18T00:06:43.197Z,47.30
2022-12-18T00:09:11.556Z,44.15
2022-12-18T00:11:38.366Z,42.25
2022-12-18T00:14:05.158Z,66.47
2022-12-18T00:16:33.998Z,91.53
2022-12-18T00:19:01.322Z,79.93
2022-12-18T00:21:29.268Z,74.55
2022-12-18T00:23:56.073Z,69.40
2022-12-18T00:26:32.606Z,65.75
2022-12-18T00:29:07.838Z,62.08
2022-12-18T00:31:35.141Z,59.05
2022-12-18T00:34:02.809Z,54.33
2022-12-18T00:36:32.126Z,53.97
2022-12-18T00:39:00.039Z,52.22
2022-12-18T00:41:46.082Z,49.05
2022-12-18T00:44:15.116Z,47.47
2022-12-18T00:46:43.171Z,48.35
2022-12-18T00:49:10.719Z,45.50
2022-12-18T00:51:37.546Z,43.85
2022-12-18T00:54:05.152Z,41.97
2022-12-18T00:56:32.087Z,42.05
2022-12-18T00:58:58.925Z,41.38
2022-12-18T01:01:25.857Z,40.17
2022-12-18T01:03:52.723Z,36.75
2022-12-18T01:06:19.631Z,37.58
2022-12-18T01:08:46.446Z,38.00
2022-12-18T01:11:18.499Z,37.03
2022-12-18T01:13:45.572Z,36.80
2022-12-18T01:16:14.040Z,33.83
2022-12-18T01:18:41.432Z,34.20
2022-12-18T01:21:10.605Z,33.75
2022-12-18T01:23:37.735Z,33.25
2022-12-18T01:26:17.583Z,32.58
2022-12-18T01:28:44.991Z,31.92
2022-12-18T01:31:20.688Z,29.83
2022-12-18T01:33:52.080Z,31.65
2022-12-18T01:36:25.301Z,31.63
2022-12-18T01:38:52.782Z,28.70
2022-12-18T01:41:22.998Z,28.67
2022-12-18T01:43:57.814Z,28.05
2022-12-18T01:46:25.722Z,27.25
2022-12-18T01:48:56.657Z,27.65
2022-12-18T01:51:24.706Z,28.98
2022-12-18T01:53:51.627Z,27.35
2022-12-18T01:56:20.865Z,26.98
2022-12-18T01:59:01.618Z,25.55
2022-12-18T02:01:29.546Z,24.95
2022-12-18T02:03:56.373Z,24.85
2022-12-18T02:06:34.854Z,23.83
2022-12-18T02:09:23.438Z,23.23
2022-12-18T02:12:17.640Z,23.13
2022-12-18T02:14:59.999Z,21.73
2022-12-18T02:17:39.602Z,22.15
2022-12-18T02:20:26.829Z,21.83
2022-12-18T02:23:05.546Z,21.80
2022-12-18T02:25:48.591Z,20.25
2022-12-18T02:28:16.904Z,20.40
2022-12-18T02:30:45.238Z,19.45
2022-12-18T02:33:13.402Z,19.02
2022-12-18T02:35:41.973Z,18.90
2022-12-18T02:38:08.801Z,19.15
2022-12-18T02:40:36.151Z,18.70
2022-12-18T02:43:13.944Z,18.02
2022-12-18T02:45:58.598Z,17.75
2022-12-18T02:48:29.392Z,17.42
2022-12-18T02:51:01.078Z,17.67
2022-12-18T02:53:35.216Z,17.60
2022-12-18T02:56:11.984Z,17.77
2022-12-18T02:58:44.700Z,16.50
2022-12-18T03:01:16.698Z,16.63
2022-12-18T03:04:01.958Z,16.75
2022-12-18T03:06:36.438Z,15.80
2022-12-18T03:09:13.602Z,15.65
2022-12-18T03:14:35.360Z,15.98
2022-12-18T03:17:05.143Z,15.50
2022-12-18T03:19:33.903Z,14.95
2022-12-18T03:22:03.608Z,14.30
2022-12-18T03:27:01.563Z,13.88
2022-12-18T03:29:33.583Z,13.80
2022-12-18T03:32:07.049Z,12.98
2022-12-18T03:34:36.603Z,13.55
2022-12-18T03:37:04.109Z,13.95
2022-12-18T03:39:31.094Z,13.90
2022-12-18T03:42:00.626Z,12.95
2022-12-18T03:44:37.127Z,13.27
2022-12-18T03:47:34.857Z,12.77
2022-12-18T03:50:01.616Z,12.63
2022-12-18T03:52:34.778Z,12.13
2022-12-18T03:55:02.974Z,11.63
2022-12-18T03:57:31.964Z,11.88
2022-12-18T04:00:06.609Z,12.40
2022-12-18T04:02:34.847Z,11.45
2022-12-18T04:05:04.212Z,11.85
2022-12-18T04:07:31.473Z,11.45
2022-12-18T04:10:00.302Z,11.57
2022-12-18T04:12:29.052Z,11.93
2022-12-18T04:14:56.259Z,11.15
2022-12-18T04:17:23.733Z,11.50
2022-12-18T04:19:50.707Z,11.20
2022-12-18T04:22:17.510Z,11.10
2022-12-18T04:24:44.283Z,11.52
2022-12-18T04:27:11.062Z,9.88
2022-12-18T04:29:37.871Z,10.15
2022-12-18T04:32:04.907Z,9.90
2022-12-18T04:34:31.717Z,10.07
2022-12-18T04:36:58.482Z,9.57
2022-12-18T04:39:25.463Z,9.95
2022-12-18T04:41:52.873Z,9.55
2022-12-18T04:44:19.699Z,9.68
2022-12-18T04:46:46.631Z,9.45
2022-12-18T04:49:13.572Z,9.23
2022-12-18T04:51:40.585Z,8.55
2022-12-18T04:54:07.437Z,8.93
2022-12-18T04:56:34.277Z,8.98
2022-12-18T04:59:01.063Z,8.55
2022-12-18T05:01:34.026Z,8.25
2022-12-18T05:04:02.664Z,9.02
2022-12-18T05:06:29.556Z,9.02
2022-12-18T05:08:56.388Z,8.85
2022-12-18T05:11:23.190Z,8.88
2022-12-18T05:13:50.147Z,9.00
2022-12-18T05:16:17.210Z,8.50
2022-12-18T05:18:44.241Z,8.48
2022-12-18T05:21:11.136Z,8.07
2022-12-18T05:23:38.495Z,8.95
2022-12-18T05:26:07.585Z,7.97
2022-12-18T05:28:36.365Z,8.43
2022-12-18T05:31:04.270Z,8.25
2022-12-18T05:33:32.962Z,8.30
2022-12-18T05:36:05.018Z,7.90
2022-12-18T05:38:32.995Z,8.32
2022-12-18T05:41:00.043Z,8.20
2022-12-18T05:43:28.033Z,7.28
2022-12-18T05:45:55.548Z,7.68
2022-12-18T05:48:22.937Z,7.70
2022-12-18T05:50:51.018Z,7.85
2022-12-18T05:53:20.317Z,7.40
2022-12-18T05:55:48.020Z,6.80
2022-12-18T05:58:15.710Z,7.30
2022-12-18T06:00:45.070Z,6.95
2022-12-18T06:03:13.217Z,7.50
2022-12-18T06:05:42.770Z,6.90
2022-12-18T06:08:09.848Z,7.30
2022-12-18T06:10:37.323Z,7.10
2022-12-18T06:13:04.494Z,6.90
2022-12-18T06:15:31.530Z,6.68
2022-12-18T06:17:58.371Z,6.60
2022-12-18T06:20:29.075Z,6.35
2022-12-18T06:22:58.730Z,6.53
2022-12-18T06:25:25.547Z,6.50
2022-12-18T06:27:52.335Z,6.35
2022-12-18T06:30:19.202Z,5.88
2022-12-18T06:32:46.055Z,6.45
2022-12-18T06:35:15.556Z,5.95
2022-12-18T06:37:42.647Z,5.75
2022-12-18T06:40:10.019Z,6.22
2022-12-18T06:42:36.827Z,5.75
2022-12-18T06:45:03.886Z,5.65
2022-12-18T06:47:30.667Z,5.57
2022-12-18T06:49:57.433Z,6.20
2022-12-18T06:52:24.282Z,5.53
2022-12-18T06:54:51.133Z,5.60
2022-12-18T06:57:17.959Z,5.82
2022-12-18T06:59:44.701Z,5.43
2022-12-18T07:02:15.168Z,5.45
2022-12-18T07:04:42.026Z,5.38
2022-12-18T07:07:08.821Z,5.47
2022-12-18T07:09:35.720Z,5.45
2022-12-18T07:12:02.740Z,5.13
2022-12-18T07:14:29.538Z,4.90
2022-12-18T07:16:56.877Z,5.25
2022-12-18T07:19:23.774Z,5.10
2022-12-18T07:21:51.474Z,4.95
2022-12-18T07:24:18.383Z,4.90
2022-12-18T07:26:47.691Z,4.55
2022-12-18T07:29:14.635Z,5.00
2022-12-18T07:31:41.558Z,4.70
2022-12-18T07:34:12.686Z,4.95
2022-12-18T07:36:39.486Z,4.75
2022-12-18T07:39:06.331Z,4.80
2022-12-18T07:41:33.109Z,4.80
2022-12-18T07:44:00.007Z,4.57
2022-12-18T07:46:26.778Z,5.00
2022-12-18T07:48:53.575Z,4.68
2022-12-18T07:51:20.554Z,4.32
2022-12-18T07:53:51.304Z,4.65
2022-12-18T07:56:28.697Z,4.38
2022-12-18T07:58:57.311Z,4.57
2022-12-18T08:01:24.354Z,4.80
2022-12-18T08:03:52.405Z,4.47
2022-12-18T08:06:19.472Z,4.25
2022-12-18T08:08:49.521Z,4.70
2022-12-18T08:11:17.023Z,4.63
2022-12-18T08:13:43.898Z,5.03
2022-12-18T08:16:10.784Z,4.30
2022-12-18T08:18:39.095Z,4.75
2022-12-18T08:21:12.527Z,4.60
2022-12-18T08:23:42.919Z,4.53
2022-12-18T08:26:11.334Z,4.28
2022-12-18T08:28:38.486Z,4.18
2022-12-18T08:31:05.662Z,4.43
2022-12-18T08:33:33.286Z,4.32
2022-12-18T08:36:01.035Z,4.43
2022-12-18T08:38:27.914Z,4.25
2022-12-18T08:41:05.061Z,3.78
2022-12-18T08:43:50.387Z,4.43
2022-12-18T08:46:18.055Z,4.40
2022-12-18T08:48:45.165Z,4.60
2022-12-18T08:51:12.039Z,4.30
2022-12-18T08:53:39.516Z,3.92
2022-12-18T08:56:07.245Z,4.45
2022-12-18T08:58:34.100Z,4.22
2022-12-18T09:01:04.999Z,4.45
2022-12-18T09:03:32.302Z,4.32
2022-12-18T09:05:59.360Z,3.70
2022-12-18T09:08:26.896Z,3.83
2022-12-18T09:10:53.791Z,4.15
2022-12-18T09:13:20.779Z,3.80
2022-12-18T09:15:49.897Z,3.83
2022-12-18T09:18:18.678Z,4.40
2022-12-18T09:20:45.481Z,4.00
2022-12-18T09:23:12.774Z,3.95
2022-12-18T09:25:39.970Z,4.15
2022-12-18T09:28:11.767Z,4.00
2022-12-18T09:30:40.405Z,3.88
2022-12-18T09:33:07.223Z,3.85
2022-12-18T09:35:36.986Z,11.85
2022-12-18T09:38:03.890Z,45.38
2022-12-18T09:40:35.933Z,42.17
2022-12-18T09:45:42.050Z,40.00
2022-12-18T09:48:20.799Z,35.33
2022-12-18T09:50:48.069Z,31.17
2022-12-18T09:53:20.782Z,28.75
2022-12-18T09:55:49.107Z,27.35
2022-12-18T09:58:25.531Z,23.85
2022-12-18T10:00:55.962Z,23.27
2022-12-18T10:03:23.103Z,22.08
2022-12-18T10:06:30.933Z,39.72
2022-12-18T10:09:18.257Z,44.00
2022-12-18T10:12:07.142Z,44.88
2022-12-18T10:14:55.191Z,44.60
2022-12-18T10:17:47.482Z,42.30
2022-12-18T10:20:20.288Z,39.28
2022-12-18T10:23:27.771Z,37.35
2022-12-18T10:26:10.854Z,33.25
2022-12-18T10:28:40.243Z,30.40
2022-12-18T10:31:08.767Z,30.48
2022-12-18T10:33:35.884Z,27.90
2022-12-18T10:36:03.856Z,26.33
2022-12-18T10:38:32.849Z,25.55
2022-12-18T10:41:19.607Z,23.23
2022-12-18T10:43:49.031Z,21.85
2022-12-18T10:46:18.481Z,22.30
2022-12-18T10:48:48.449Z,21.15
2022-12-18T10:51:31.430Z,20.40
2022-12-18T10:54:06.468Z,19.10
2022-12-18T10:56:36.017Z,19.33
2022-12-18T10:59:05.865Z,34.85
2022-12-18T11:01:50.334Z,47.63
2022-12-18T11:04:28.678Z,49.88
2022-12-18T11:06:57.231Z,47.05
2022-12-18T11:09:29.100Z,44.28
2022-12-18T11:11:57.824Z,41.55
2022-12-18T11:14:47.407Z,37.23
2022-12-18T11:19:57.880Z,35.08
2022-12-18T11:22:30.699Z,33.05
2022-12-18T11:25:34.712Z,29.30
2022-12-18T11:28:05.495Z,29.40
2022-12-18T11:30:35.477Z,27.60
2022-12-18T11:35:46.526Z,26.77
2022-12-18T11:38:32.051Z,31.73
2022-12-18T11:41:12.000Z,37.75
2022-12-18T11:43:59.088Z,38.92
2022-12-18T11:46:39.211Z,34.90
2022-12-18T11:49:15.535Z,34.97
2022-12-18T11:52:00.028Z,33.78
2022-12-18T11:54:26.907Z,46.85
2022-12-18T11:57:08.826Z,46.67
2022-12-18T11:59:49.022Z,44.65
2022-12-18T12:02:54.648Z,42.85
2022-12-18T12:06:02.789Z,41.35
2022-12-18T12:08:48.054Z,40.40
2022-12-18T12:11:14.787Z,40.53
2022-12-18T12:14:09.163Z,40.78
2022-12-18T12:17:08.308Z,38.38
2022-12-18T12:19:35.064Z,38.90
2022-12-18T12:22:33.511Z,37.72
2022-12-18T12:25:11.881Z,35.55
2022-12-18T12:27:48.765Z,35.65
2022-12-18T12:30:23.001Z,36.33
2022-12-18T12:33:14.751Z,35.65
2022-12-18T12:36:16.849Z,32.83
2022-12-18T12:38:52.433Z,31.92
2022-12-18T12:41:42.758Z,31.63
2022-12-18T12:44:16.053Z,29.25
2022-12-18T12:46:43.422Z,29.88
2022-12-18T12:49:21.864Z,27.33
2022-12-18T12:52:17.497Z,27.60
2022-12-18T12:54:45.777Z,27.75
2022-12-18T13:00:17.521Z,25.67
2022-12-18T13:02:59.292Z,24.33
2022-12-18T13:05:52.865Z,23.73
2022-12-18T13:08:31.220Z,21.85
2022-12-18T13:11:39.379Z,21.48
2022-12-18T13:14:23.735Z,22.05
2022-12-18T13:16:51.876Z,20.23
2022-12-18T13:19:26.570Z,20.33
2022-12-18T13:21:56.136Z,21.33
2022-12-18T13:24:29.148Z,19.17
2022-12-18T13:26:56.273Z,20.40
2022-12-18T13:29:42.977Z,18.38
2022-12-18T13:32:24.748Z,19.05
2022-12-18T13:35:34.803Z,18.75
2022-12-18T13:38:02.162Z,17.45
2022-12-18T13:40:41.924Z,16.92
2022-12-18T13:43:21.100Z,17.83
2022-12-18T13:46:06.012Z,17.83
2022-12-18T13:48:37.065Z,16.30
2022-12-18T13:51:09.441Z,16.98
2022-12-18T13:53:43.816Z,16.75
2022-12-18T13:56:10.999Z,16.35
2022-12-18T13:58:38.046Z,16.88
2022-12-18T14:01:05.755Z,16.05
2022-12-18T14:03:32.840Z,16.15
2022-12-18T14:06:05.743Z,17.08
2022-12-18T14:08:51.334Z,15.65
2022-12-18T14:11:23.724Z,15.80
2022-12-18T14:13:53.518Z,15.85
2022-12-18T14:16:20.801Z,16.35
2022-12-18T14:21:27.251Z,15.45
2022-12-18T14:24:19.365Z,15.27
2022-12-18T14:26:47.712Z,14.30
2022-12-18T14:32:18.884Z,14.75
2022-12-18T14:34:50.760Z,15.13
2022-12-18T14:37:21.447Z,67.30
2022-12-18T14:40:10.460Z,77.18
2022-12-18T14:42:38.598Z,62.80
2022-12-18T14:45:43.048Z,54.75
2022-12-18T14:48:22.833Z,51.65
2022-12-18T14:51:04.615Z,46.65
2022-12-18T14:56:37.928Z,40.92
2022-12-18T14:59:24.695Z,40.05
2022-12-18T15:02:21.377Z,36.22
2022-12-18T15:04:48.362Z,33.22
2022-12-18T15:07:21.031Z,30.70
2022-12-18T15:10:17.051Z,29.55
2022-12-18T15:13:16.834Z,28.95
2022-12-18T15:15:46.672Z,26.80
2022-12-18T15:18:17.795Z,24.80
2022-12-18T15:20:49.613Z,23.23
2022-12-18T15:23:39.803Z,24.60
2022-12-18T15:28:40.615Z,21.30
2022-12-18T15:31:11.949Z,20.15
2022-12-18T15:33:41.394Z,21.10
2022-12-18T15:36:13.814Z,18.50
2022-12-18T15:38:40.640Z,18.67
2022-12-18T15:41:29.074Z,18.23
2022-12-18T15:43:55.878Z,17.33
2022-12-18T15:46:24.310Z,17.10
2022-12-18T15:48:57.974Z,16.80
2022-12-18T15:51:34.545Z,16.35
2022-12-18T15:54:04.808Z,39.85
2022-12-18T15:56:50.271Z,49.38
2022-12-18T15:59:19.350Z,45.85
2022-12-18T16:01:51.082Z,41.90
2022-12-18T16:04:21.574Z,38.67
2022-12-18T16:07:13.843Z,37.90
2022-12-18T16:09:36.553Z,35.25
2022-12-18T16:12:03.790Z,33.95
2022-12-18T16:14:31.231Z,30.83
2022-12-18T16:17:03.199Z,29.45
2022-12-18T16:19:30.675Z,28.70
2022-12-18T16:21:59.564Z,28.50
2022-12-18T16:24:32.199Z,27.10
2022-12-18T16:27:00.527Z,26.15
2022-12-18T16:29:28.897Z,25.38
2022-12-18T16:32:00.463Z,24.77
2022-12-18T16:34:33.806Z,24.00
2022-12-18T16:37:05.995Z,22.65
2022-12-18T16:39:35.090Z,22.33
2022-12-18T16:42:17.519Z,20.70
2022-12-18T16:44:45.199Z,18.85
2022-12-18T16:47:15.173Z,19.25
2022-12-18T16:49:42.752Z,17.38
2022-12-18T16:52:09.635Z,17.50
2022-12-18T16:54:36.872Z,17.00
2022-12-18T16:57:05.365Z,17.67
2022-12-18T16:59:32.719Z,18.27
2022-12-18T17:01:59.667Z,15.75
2022-12-18T17:04:26.630Z,16.40
2022-12-18T17:06:53.858Z,15.75
2022-12-18T17:09:27.612Z,15.80
2022-12-18T17:11:54.541Z,15.43
2022-12-18T17:14:23.425Z,14.77
2022-12-18T17:17:07.426Z,15.25
2022-12-18T17:19:37.258Z,14.55
2022-12-18T17:22:04.836Z,14.95
2022-12-18T17:24:35.142Z,13.50
2022-12-18T17:27:03.478Z,13.40
2022-12-18T17:29:30.326Z,13.63
2022-12-18T17:31:57.266Z,12.60
2022-12-18T17:34:25.521Z,12.65
2022-12-18T17:36:52.325Z,11.93
2022-12-18T17:39:20.164Z,13.23
2022-12-18T17:44:16.636Z,12.40
2022-12-18T17:46:43.885Z,11.48
2022-12-18T17:49:11.572Z,11.15
2022-12-18T17:51:38.754Z,12.43
2022-12-18T17:54:05.782Z,10.85
2022-12-18T17:56:32.945Z,10.60
2022-12-18T17:59:00.153Z,10.40
2022-12-18T18:01:27.451Z,10.20
2022-12-18T18:06:27.364Z,9.95
2022-12-18T18:08:54.731Z,10.13
2022-12-18T18:11:41.976Z,9.82
2022-12-18T18:14:15.099Z,10.38
2022-12-18T18:16:44.811Z,9.23
2022-12-18T18:21:42.249Z,9.23
2022-12-18T18:24:11.089Z,9.13
2022-12-18T18:26:38.094Z,11.43
2022-12-18T18:29:07.264Z,25.50
2022-12-18T18:31:40.884Z,30.13
2022-12-18T18:34:08.432Z,30.85
2022-12-18T18:36:35.335Z,28.50
2022-12-18T18:39:02.384Z,26.00
2022-12-18T18:41:30.491Z,25.13
2022-12-18T18:43:58.743Z,20.58
2022-12-18T18:46:26.307Z,18.80
2022-12-18T18:48:53.213Z,18.73
2022-12-18T18:51:21.201Z,17.67
2022-12-18T18:53:50.565Z,17.98
2022-12-18T18:57:03.970Z,15.70
2022-12-18T18:59:09.478Z,15.57
2022-12-18T19:01:36.438Z,14.75
2022-12-18T19:04:03.526Z,14.68
2022-12-18T19:06:30.491Z,13.90
2022-12-18T19:08:58.524Z,13.35
2022-12-18T19:11:45.014Z,12.30
2022-12-18T19:14:14.241Z,11.95
2022-12-18T19:16:41.924Z,12.15
2022-12-18T19:19:09.204Z,11.05
2022-12-18T19:21:38.115Z,11.75
2022-12-18T19:24:05.538Z,11.53
2022-12-18T19:26:32.483Z,11.40
2022-12-18T19:29:06.663Z,10.50
2022-12-18T19:31:36.364Z,10.43
2022-12-18T19:34:07.360Z,10.57
2022-12-18T19:36:35.952Z,10.65
2022-12-18T19:39:08.940Z,26.85
2022-12-18T19:41:35.770Z,40.35
2022-12-18T19:44:07.755Z,81.40
2022-12-18T19:46:35.306Z,73.88
2022-12-18T19:49:02.357Z,70.57
2022-12-18T19:51:30.308Z,63.38
2022-12-18T19:53:59.902Z,56.13
2022-12-18T19:56:30.344Z,52.35
2022-12-18T19:58:57.530Z,44.28
2022-12-18T20:01:25.982Z,40.95
2022-12-18T20:03:55.886Z,37.57
2022-12-18T20:06:47.527Z,36.15
2022-12-18T20:09:14.463Z,31.27
2022-12-18T20:11:42.353Z,28.27
2022-12-18T20:14:13.520Z,26.40
2022-12-18T20:16:40.595Z,25.90
2022-12-18T20:19:07.781Z,26.85
2022-12-18T20:21:34.652Z,66.38
2022-12-18T20:24:02.128Z,72.70
2022-12-18T20:26:29.120Z,79.47
2022-12-18T20:28:56.151Z,73.28
2022-12-18T20:31:23.988Z,61.40
2022-12-18T20:33:52.144Z,57.40
2022-12-18T20:36:23.604Z,51.35
2022-12-18T20:38:58.114Z,48.65
2022-12-18T20:41:36.081Z,44.17
2022-12-18T20:44:23.635Z,39.58
2022-12-18T20:46:55.384Z,35.92
2022-12-18T20:49:23.261Z,34.10
2022-12-18T20:51:52.290Z,31.88
2022-12-18T20:54:19.278Z,30.08
2022-12-18T20:56:46.339Z,31.50
2022-12-18T20:59:13.150Z,27.90
2022-12-18T21:01:42.613Z,26.80
2022-12-18T21:04:15.736Z,25.90
2022-12-18T21:06:49.398Z,24.17
2022-12-18T21:09:18.488Z,22.92
2022-12-18T21:12:03.779Z,22.95
2022-12-18T21:14:33.670Z,22.42
2022-12-18T21:17:01.959Z,20.75
2022-12-18T21:19:29.282Z,20.50
2022-12-18T21:21:57.086Z,19.65
2022-12-18T21:24:24.961Z,20.23
2022-12-18T21:26:52.244Z,18.70
2022-12-18T21:29:24.276Z,17.95
2022-12-18T21:31:52.278Z,17.92
2022-12-18T21:34:27.969Z,17.33
2022-12-18T21:36:56.107Z,17.17
2022-12-18T21:39:23.122Z,18.45
2022-12-18T21:42:09.076Z,18.88
2022-12-18T21:44:41.625Z,18.52
2022-12-18T21:47:21.776Z,19.17
2022-12-18T21:49:51.170Z,18.48
2022-12-18T21:52:18.121Z,17.50
2022-12-18T21:54:44.935Z,16.58
2022-12-18T21:57:13.377Z,17.83
2022-12-18T21:59:41.516Z,17.60
2022-12-18T22:02:12.642Z,16.40
2022-12-18T22:04:39.824Z,15.55
2022-12-18T22:07:07.128Z,15.63
2022-12-18T22:09:34.204Z,14.30
2022-12-18T22:12:01.102Z,13.88
2022-12-18T22:14:28.139Z,14.38
2022-12-18T22:16:57.298Z,13.80
2022-12-18T22:19:27.365Z,13.60
2022-12-18T22:21:54.839Z,12.98
2022-12-18T22:24:25.787Z,12.73
2022-12-18T22:26:56.711Z,16.10
2022-12-18T22:29:47.657Z,26.80
2022-12-18T22:32:25.586Z,51.90
2022-12-18T22:35:07.253Z,62.13
2022-12-18T22:37:35.064Z,57.80
2022-12-18T22:40:03.218Z,54.42
2022-12-18T22:42:31.007Z,47.17
2022-12-18T22:44:57.856Z,44.35
2022-12-18T22:47:29.446Z,41.80
2022-12-18T22:49:57.334Z,40.08
2022-12-18T22:52:24.878Z,34.85
2022-12-18T22:54:53.433Z,33.85
2022-12-18T22:57:24.018Z,31.42
2022-12-18T22:59:51.393Z,29.52
2022-12-18T23:02:19.146Z,26.65
2022-12-18T23:04:47.409Z,25.08
2022-12-18T23:07:14.734Z,24.08
2022-12-18T23:09:41.528Z,31.92
2022-12-18T23:12:14.862Z,49.05
2022-12-18T23:14:42.104Z,59.90
2022-12-18T23:17:08.964Z,62.17
2022-12-18T23:19:35.757Z,58.58
2022-12-18T23:22:06.059Z,54.65
2022-12-18T23:24:35.490Z,50.97
2022-12-18T23:27:02.304Z,44.92
2022-12-18T23:29:32.478Z,41.10
2022-12-18T23:31:59.351Z,38.92
2022-12-18T23:34:26.168Z,37.67
2022-12-18T23:36:55.982Z,35.28
2022-12-18T23:39:29.719Z,33.78
2022-12-18T23:41:59.924Z,31.75
2022-12-18T23:44:26.864Z,30.65
2022-12-18T23:46:54.355Z,29.25
2022-12-18T23:49:21.344Z,28.90
2022-12-18T23:51:48.233Z,26.23
2022-12-18T23:54:15.093Z,25.98
2022-12-18T23:56:42.119Z,25.02
2022-12-18T23:59:09.151Z,24.85
